sensor_id;sensor_type;location;lat;lon;timestamp;P1;durP1;ratioP1;P2;durP2;ratioP2
38611;SDS011;24368;52.156;20.788;2023-05-07T00:00:42;4.50;;;3.00;;
38611;SDS011;24368;52.156;20.788;2023-05-07T00:05:54;4.70;;;3.40;;
38611;SDS011;24368;52.156;20.788;2023-05-07T00:10:56;3.80;;;2.90;;
38611;SDS011;24368;52.156;20.788;2023-05-07T00:15:57;2.80;;;2.60;;
38611;SDS011;24368;52.156;20.788;2023-05-07T00:20:58;4.30;;;2.80;;
38611;SDS011;24368;52.156;20.788;2023-05-07T00:25:59;3.20;;;2.90;;
38611;SDS011;24368;52.156;20.788;2023-05-07T00:31:00;4.50;;;3.30;;
38611;SDS011;24368;52.156;20.788;2023-05-07T00:36:01;3.50;;;3.00;;
38611;SDS011;24368;52.156;20.788;2023-05-07T00:41:02;5.60;;;3.40;;
38611;SDS011;24368;52.156;20.788;2023-05-07T00:46:03;3.30;;;3.00;;
38611;SDS011;24368;52.156;20.788;2023-05-07T00:51:05;3.60;;;3.00;;
38611;SDS011;24368;52.156;20.788;2023-05-07T00:56:07;4.50;;;3.60;;
38611;SDS011;24368;52.156;20.788;2023-05-07T01:01:09;5.60;;;3.30;;
38611;SDS011;24368;52.156;20.788;2023-05-07T01:06:10;4.10;;;3.10;;
38611;SDS011;24368;52.156;20.788;2023-05-07T01:11:20;3.10;;;2.80;;
38611;SDS011;24368;52.156;20.788;2023-05-07T01:16:22;3.50;;;3.20;;
38611;SDS011;24368;52.156;20.788;2023-05-07T01:21:25;3.10;;;2.70;;
38611;SDS011;24368;52.156;20.788;2023-05-07T01:36:45;2.50;;;2.30;;
38611;SDS011;24368;52.156;20.788;2023-05-07T01:41:47;2.40;;;2.20;;
38611;SDS011;24368;52.156;20.788;2023-05-07T01:46:49;2.70;;;2.00;;
38611;SDS011;24368;52.156;20.788;2023-05-07T01:51:51;2.80;;;2.60;;
38611;SDS011;24368;52.156;20.788;2023-05-07T01:56:52;3.20;;;2.50;;
38611;SDS011;24368;52.156;20.788;2023-05-07T02:01:53;4.00;;;2.50;;
38611;SDS011;24368;52.156;20.788;2023-05-07T02:06:54;2.80;;;2.20;;
38611;SDS011;24368;52.156;20.788;2023-05-07T02:11:56;2.30;;;2.10;;
38611;SDS011;24368;52.156;20.788;2023-05-07T02:16:57;3.30;;;2.90;;
38611;SDS011;24368;52.156;20.788;2023-05-07T02:21:58;3.50;;;2.40;;
38611;SDS011;24368;52.156;20.788;2023-05-07T02:26:59;2.60;;;2.40;;
38611;SDS011;24368;52.156;20.788;2023-05-07T02:32:01;3.60;;;2.60;;
38611;SDS011;24368;52.156;20.788;2023-05-07T02:37:02;2.80;;;2.20;;
38611;SDS011;24368;52.156;20.788;2023-05-07T02:42:03;2.00;;;1.80;;
38611;SDS011;24368;52.156;20.788;2023-05-07T02:47:04;2.30;;;2.10;;
38611;SDS011;24368;52.156;20.788;2023-05-07T02:52:05;3.30;;;2.30;;
38611;SDS011;24368;52.156;20.788;2023-05-07T02:57:07;3.20;;;2.40;;
38611;SDS011;24368;52.156;20.788;2023-05-07T03:02:08;2.60;;;2.20;;
38611;SDS011;24368;52.156;20.788;2023-05-07T03:07:09;2.90;;;2.20;;
38611;SDS011;24368;52.156;20.788;2023-05-07T03:12:10;3.30;;;2.40;;
38611;SDS011;24368;52.156;20.788;2023-05-07T03:17:11;2.90;;;2.20;;
38611;SDS011;24368;52.156;20.788;2023-05-07T03:22:12;2.90;;;2.10;;
38611;SDS011;24368;52.156;20.788;2023-05-07T03:27:13;2.10;;;2.00;;
38611;SDS011;24368;52.156;20.788;2023-05-07T03:32:14;3.60;;;1.70;;
38611;SDS011;24368;52.156;20.788;2023-05-07T03:37:16;2.00;;;1.90;;
38611;SDS011;24368;52.156;20.788;2023-05-07T03:42:17;3.60;;;2.20;;
38611;SDS011;24368;52.156;20.788;2023-05-07T03:47:18;2.60;;;1.90;;
38611;SDS011;24368;52.156;20.788;2023-05-07T03:52:19;3.40;;;2.60;;
38611;SDS011;24368;52.156;20.788;2023-05-07T03:57:24;2.80;;;2.30;;
38611;SDS011;24368;52.156;20.788;2023-05-07T04:02:25;2.60;;;1.70;;
38611;SDS011;24368;52.156;20.788;2023-05-07T04:07:26;2.20;;;1.80;;
38611;SDS011;24368;52.156;20.788;2023-05-07T04:12:27;2.40;;;2.20;;
38611;SDS011;24368;52.156;20.788;2023-05-07T04:17:29;2.60;;;2.40;;
38611;SDS011;24368;52.156;20.788;2023-05-07T04:22:30;3.00;;;2.10;;
38611;SDS011;24368;52.156;20.788;2023-05-07T04:27:31;2.10;;;1.70;;
38611;SDS011;24368;52.156;20.788;2023-05-07T04:32:33;1.80;;;1.70;;
38611;SDS011;24368;52.156;20.788;2023-05-07T04:37:34;2.30;;;1.70;;
38611;SDS011;24368;52.156;20.788;2023-05-07T04:42:35;2.70;;;2.30;;
38611;SDS011;24368;52.156;20.788;2023-05-07T04:47:37;2.10;;;1.90;;
38611;SDS011;24368;52.156;20.788;2023-05-07T04:52:38;2.20;;;1.70;;
38611;SDS011;24368;52.156;20.788;2023-05-07T04:57:39;1.80;;;1.60;;
38611;SDS011;24368;52.156;20.788;2023-05-07T05:02:41;2.80;;;1.90;;
38611;SDS011;24368;52.156;20.788;2023-05-07T05:07:42;2.80;;;2.50;;
38611;SDS011;24368;52.156;20.788;2023-05-07T05:12:43;2.00;;;1.90;;
38611;SDS011;24368;52.156;20.788;2023-05-07T05:17:45;2.70;;;2.30;;
38611;SDS011;24368;52.156;20.788;2023-05-07T05:22:46;2.10;;;1.50;;
38611;SDS011;24368;52.156;20.788;2023-05-07T05:27:47;1.70;;;1.50;;
38611;SDS011;24368;52.156;20.788;2023-05-07T05:32:48;1.70;;;1.50;;
38611;SDS011;24368;52.156;20.788;2023-05-07T05:37:49;2.30;;;2.10;;
38611;SDS011;24368;52.156;20.788;2023-05-07T05:42:50;3.20;;;1.60;;
38611;SDS011;24368;52.156;20.788;2023-05-07T05:47:51;4.40;;;3.60;;
38611;SDS011;24368;52.156;20.788;2023-05-07T05:52:52;2.80;;;2.20;;
38611;SDS011;24368;52.156;20.788;2023-05-07T05:57:54;1.50;;;1.40;;
38611;SDS011;24368;52.156;20.788;2023-05-07T06:02:56;2.10;;;1.70;;
38611;SDS011;24368;52.156;20.788;2023-05-07T06:07:58;5.20;;;4.20;;
38611;SDS011;24368;52.156;20.788;2023-05-07T06:12:59;1.70;;;1.50;;
38611;SDS011;24368;52.156;20.788;2023-05-07T06:18:00;1.30;;;1.20;;
38611;SDS011;24368;52.156;20.788;2023-05-07T06:23:01;2.70;;;1.40;;
38611;SDS011;24368;52.156;20.788;2023-05-07T06:28:02;1.90;;;1.80;;
38611;SDS011;24368;52.156;20.788;2023-05-07T06:33:03;1.70;;;1.60;;
38611;SDS011;24368;52.156;20.788;2023-05-07T06:38:04;2.40;;;2.00;;
38611;SDS011;24368;52.156;20.788;2023-05-07T06:43:06;1.70;;;1.50;;
38611;SDS011;24368;52.156;20.788;2023-05-07T06:48:07;1.60;;;1.50;;
38611;SDS011;24368;52.156;20.788;2023-05-07T06:53:08;2.30;;;1.60;;
38611;SDS011;24368;52.156;20.788;2023-05-07T06:58:09;1.70;;;1.60;;
38611;SDS011;24368;52.156;20.788;2023-05-07T07:03:10;1.90;;;1.50;;
38611;SDS011;24368;52.156;20.788;2023-05-07T07:08:11;2.10;;;1.50;;
38611;SDS011;24368;52.156;20.788;2023-05-07T07:13:12;2.80;;;1.60;;
38611;SDS011;24368;52.156;20.788;2023-05-07T07:18:14;1.70;;;1.60;;
38611;SDS011;24368;52.156;20.788;2023-05-07T07:23:15;1.80;;;1.70;;
38611;SDS011;24368;52.156;20.788;2023-05-07T07:28:17;4.00;;;2.00;;
38611;SDS011;24368;52.156;20.788;2023-05-07T07:33:18;2.10;;;1.40;;
38611;SDS011;24368;52.156;20.788;2023-05-07T07:38:22;1.40;;;1.30;;
38611;SDS011;24368;52.156;20.788;2023-05-07T07:43:23;2.60;;;1.80;;
38611;SDS011;24368;52.156;20.788;2023-05-07T07:48:24;3.30;;;2.70;;
38611;SDS011;24368;52.156;20.788;2023-05-07T07:53:26;2.60;;;2.40;;
38611;SDS011;24368;52.156;20.788;2023-05-07T07:58:27;1.90;;;1.60;;
38611;SDS011;24368;52.156;20.788;2023-05-07T08:03:28;2.30;;;1.70;;
38611;SDS011;24368;52.156;20.788;2023-05-07T08:08:32;2.50;;;2.00;;
38611;SDS011;24368;52.156;20.788;2023-05-07T08:13:33;3.50;;;2.20;;
38611;SDS011;24368;52.156;20.788;2023-05-07T08:18:34;5.20;;;2.10;;
38611;SDS011;24368;52.156;20.788;2023-05-07T08:23:36;1.50;;;1.40;;
38611;SDS011;24368;52.156;20.788;2023-05-07T08:28:37;4.30;;;2.10;;
38611;SDS011;24368;52.156;20.788;2023-05-07T08:33:38;5.10;;;4.60;;
38611;SDS011;24368;52.156;20.788;2023-05-07T08:38:39;2.00;;;1.90;;
38611;SDS011;24368;52.156;20.788;2023-05-07T08:43:45;2.50;;;1.80;;
38611;SDS011;24368;52.156;20.788;2023-05-07T08:48:49;4.60;;;1.90;;
38611;SDS011;24368;52.156;20.788;2023-05-07T08:53:51;2.40;;;2.20;;
38611;SDS011;24368;52.156;20.788;2023-05-07T08:58:52;2.30;;;2.10;;
38611;SDS011;24368;52.156;20.788;2023-05-07T09:03:57;2.10;;;2.00;;
38611;SDS011;24368;52.156;20.788;2023-05-07T09:08:58;3.20;;;2.40;;
38611;SDS011;24368;52.156;20.788;2023-05-07T09:14:01;4.00;;;2.90;;
38611;SDS011;24368;52.156;20.788;2023-05-07T09:19:03;1.50;;;1.40;;
38611;SDS011;24368;52.156;20.788;2023-05-07T09:24:04;2.70;;;1.50;;
38611;SDS011;24368;52.156;20.788;2023-05-07T09:29:07;2.30;;;1.80;;
38611;SDS011;24368;52.156;20.788;2023-05-07T09:34:20;1.70;;;1.50;;
38611;SDS011;24368;52.156;20.788;2023-05-07T09:39:22;3.00;;;2.80;;
38611;SDS011;24368;52.156;20.788;2023-05-07T09:44:24;1.90;;;1.50;;
38611;SDS011;24368;52.156;20.788;2023-05-07T09:49:26;0.90;;;0.90;;
38611;SDS011;24368;52.156;20.788;2023-05-07T09:54:31;2.80;;;1.50;;
38611;SDS011;24368;52.156;20.788;2023-05-07T09:59:35;1.60;;;1.50;;
38611;SDS011;24368;52.156;20.788;2023-05-07T10:04:39;1.40;;;1.30;;
38611;SDS011;24368;52.156;20.788;2023-05-07T10:09:41;1.60;;;1.40;;
38611;SDS011;24368;52.156;20.788;2023-05-07T10:14:45;2.70;;;1.30;;
38611;SDS011;24368;52.156;20.788;2023-05-07T10:19:48;1.50;;;1.10;;
38611;SDS011;24368;52.156;20.788;2023-05-07T10:24:51;2.40;;;1.60;;
38611;SDS011;24368;52.156;20.788;2023-05-07T10:35:06;1.60;;;1.40;;
38611;SDS011;24368;52.156;20.788;2023-05-07T10:40:14;1.90;;;1.30;;
38611;SDS011;24368;52.156;20.788;2023-05-07T10:45:18;1.70;;;1.40;;
38611;SDS011;24368;52.156;20.788;2023-05-07T10:50:20;2.00;;;1.50;;
38611;SDS011;24368;52.156;20.788;2023-05-07T10:55:22;2.30;;;1.30;;
38611;SDS011;24368;52.156;20.788;2023-05-07T11:05:28;4.30;;;3.20;;
38611;SDS011;24368;52.156;20.788;2023-05-07T11:10:50;3.00;;;1.70;;
38611;SDS011;24368;52.156;20.788;2023-05-07T11:15:53;1.80;;;1.50;;
38611;SDS011;24368;52.156;20.788;2023-05-07T11:20:57;2.10;;;1.50;;
38611;SDS011;24368;52.156;20.788;2023-05-07T11:31:03;1.50;;;1.40;;
38611;SDS011;24368;52.156;20.788;2023-05-07T11:36:05;2.20;;;1.70;;
38611;SDS011;24368;52.156;20.788;2023-05-07T11:41:08;2.80;;;1.20;;
38611;SDS011;24368;52.156;20.788;2023-05-07T11:46:11;1.30;;;1.20;;
38611;SDS011;24368;52.156;20.788;2023-05-07T11:51:18;1.80;;;1.30;;
38611;SDS011;24368;52.156;20.788;2023-05-07T11:56:23;2.60;;;1.70;;
38611;SDS011;24368;52.156;20.788;2023-05-07T12:01:25;1.60;;;1.50;;
38611;SDS011;24368;52.156;20.788;2023-05-07T12:06:26;2.50;;;1.90;;
38611;SDS011;24368;52.156;20.788;2023-05-07T12:11:27;4.20;;;1.60;;
38611;SDS011;24368;52.156;20.788;2023-05-07T12:16:29;1.50;;;1.40;;
38611;SDS011;24368;52.156;20.788;2023-05-07T12:21:31;1.30;;;1.00;;
38611;SDS011;24368;52.156;20.788;2023-05-07T12:26:32;2.70;;;1.40;;
38611;SDS011;24368;52.156;20.788;2023-05-07T12:31:40;10.00;;;9.00;;
38611;SDS011;24368;52.156;20.788;2023-05-07T12:36:44;2.50;;;2.10;;
38611;SDS011;24368;52.156;20.788;2023-05-07T12:41:52;1.90;;;1.80;;
38611;SDS011;24368;52.156;20.788;2023-05-07T12:46:55;1.80;;;1.40;;
38611;SDS011;24368;52.156;20.788;2023-05-07T12:51:56;2.00;;;1.30;;
38611;SDS011;24368;52.156;20.788;2023-05-07T12:57:07;1.20;;;1.00;;
38611;SDS011;24368;52.156;20.788;2023-05-07T13:02:10;1.10;;;1.00;;
38611;SDS011;24368;52.156;20.788;2023-05-07T13:07:11;1.50;;;1.20;;
38611;SDS011;24368;52.156;20.788;2023-05-07T13:12:12;1.70;;;1.40;;
38611;SDS011;24368;52.156;20.788;2023-05-07T13:17:13;1.70;;;1.60;;
38611;SDS011;24368;52.156;20.788;2023-05-07T13:22:14;2.10;;;1.90;;
38611;SDS011;24368;52.156;20.788;2023-05-07T13:27:15;1.50;;;1.30;;
38611;SDS011;24368;52.156;20.788;2023-05-07T13:32:16;1.40;;;1.20;;
38611;SDS011;24368;52.156;20.788;2023-05-07T13:37:17;1.80;;;1.20;;
38611;SDS011;24368;52.156;20.788;2023-05-07T13:42:18;0.90;;;0.90;;
38611;SDS011;24368;52.156;20.788;2023-05-07T13:47:20;1.20;;;1.10;;
38611;SDS011;24368;52.156;20.788;2023-05-07T13:52:21;1.00;;;1.00;;
38611;SDS011;24368;52.156;20.788;2023-05-07T13:57:22;2.60;;;1.00;;
38611;SDS011;24368;52.156;20.788;2023-05-07T14:02:23;1.20;;;1.10;;
38611;SDS011;24368;52.156;20.788;2023-05-07T14:07:24;0.90;;;0.90;;
38611;SDS011;24368;52.156;20.788;2023-05-07T14:12:26;1.70;;;1.60;;
38611;SDS011;24368;52.156;20.788;2023-05-07T14:17:27;1.90;;;1.80;;
38611;SDS011;24368;52.156;20.788;2023-05-07T14:22:28;1.50;;;1.00;;
38611;SDS011;24368;52.156;20.788;2023-05-07T14:27:29;0.80;;;0.80;;
38611;SDS011;24368;52.156;20.788;2023-05-07T14:32:30;1.30;;;1.20;;
38611;SDS011;24368;52.156;20.788;2023-05-07T14:37:31;0.90;;;0.90;;
38611;SDS011;24368;52.156;20.788;2023-05-07T14:42:32;0.80;;;0.80;;
38611;SDS011;24368;52.156;20.788;2023-05-07T14:47:33;1.10;;;1.00;;
38611;SDS011;24368;52.156;20.788;2023-05-07T14:52:34;1.50;;;1.30;;
38611;SDS011;24368;52.156;20.788;2023-05-07T14:57:35;1.90;;;1.70;;
38611;SDS011;24368;52.156;20.788;2023-05-07T15:02:36;2.60;;;1.10;;
38611;SDS011;24368;52.156;20.788;2023-05-07T15:07:38;2.00;;;1.30;;
38611;SDS011;24368;52.156;20.788;2023-05-07T15:12:39;1.20;;;1.10;;
38611;SDS011;24368;52.156;20.788;2023-05-07T15:17:40;2.90;;;2.60;;
38611;SDS011;24368;52.156;20.788;2023-05-07T15:22:41;1.50;;;1.40;;
38611;SDS011;24368;52.156;20.788;2023-05-07T15:27:43;1.60;;;1.50;;
38611;SDS011;24368;52.156;20.788;2023-05-07T15:32:44;1.60;;;1.20;;
38611;SDS011;24368;52.156;20.788;2023-05-07T15:37:46;1.20;;;1.10;;
38611;SDS011;24368;52.156;20.788;2023-05-07T15:42:47;0.90;;;0.90;;
38611;SDS011;24368;52.156;20.788;2023-05-07T15:47:48;0.90;;;0.90;;
38611;SDS011;24368;52.156;20.788;2023-05-07T15:52:50;1.10;;;1.00;;
38611;SDS011;24368;52.156;20.788;2023-05-07T15:57:51;0.90;;;0.90;;
38611;SDS011;24368;52.156;20.788;2023-05-07T16:02:54;2.00;;;1.10;;
38611;SDS011;24368;52.156;20.788;2023-05-07T16:07:56;1.80;;;1.00;;
38611;SDS011;24368;52.156;20.788;2023-05-07T16:12:57;1.30;;;0.90;;
38611;SDS011;24368;52.156;20.788;2023-05-07T16:17:59;1.00;;;0.90;;
38611;SDS011;24368;52.156;20.788;2023-05-07T16:23:00;1.50;;;1.30;;
38611;SDS011;24368;52.156;20.788;2023-05-07T16:28:01;1.30;;;1.20;;
38611;SDS011;24368;52.156;20.788;2023-05-07T16:33:03;1.50;;;1.10;;
38611;SDS011;24368;52.156;20.788;2023-05-07T16:38:04;2.00;;;1.50;;
38611;SDS011;24368;52.156;20.788;2023-05-07T16:43:09;2.00;;;1.50;;
38611;SDS011;24368;52.156;20.788;2023-05-07T16:48:11;1.90;;;1.00;;
38611;SDS011;24368;52.156;20.788;2023-05-07T16:53:13;2.00;;;1.40;;
38611;SDS011;24368;52.156;20.788;2023-05-07T16:58:14;2.50;;;2.30;;
38611;SDS011;24368;52.156;20.788;2023-05-07T17:03:15;1.80;;;1.70;;
38611;SDS011;24368;52.156;20.788;2023-05-07T17:08:16;2.40;;;1.80;;
38611;SDS011;24368;52.156;20.788;2023-05-07T17:13:18;2.40;;;1.50;;
38611;SDS011;24368;52.156;20.788;2023-05-07T17:18:19;1.40;;;1.30;;
38611;SDS011;24368;52.156;20.788;2023-05-07T17:23:20;1.80;;;1.70;;
38611;SDS011;24368;52.156;20.788;2023-05-07T17:28:21;1.90;;;1.60;;
38611;SDS011;24368;52.156;20.788;2023-05-07T17:33:22;1.80;;;1.20;;
38611;SDS011;24368;52.156;20.788;2023-05-07T17:38:23;2.20;;;2.00;;
38611;SDS011;24368;52.156;20.788;2023-05-07T17:43:24;3.50;;;1.80;;
38611;SDS011;24368;52.156;20.788;2023-05-07T17:48:26;3.20;;;2.60;;
38611;SDS011;24368;52.156;20.788;2023-05-07T17:53:27;2.80;;;2.50;;
38611;SDS011;24368;52.156;20.788;2023-05-07T17:58:28;2.60;;;2.20;;
38611;SDS011;24368;52.156;20.788;2023-05-07T18:03:30;2.70;;;2.50;;
38611;SDS011;24368;52.156;20.788;2023-05-07T18:08:33;3.50;;;2.20;;
38611;SDS011;24368;52.156;20.788;2023-05-07T18:13:34;2.60;;;2.40;;
38611;SDS011;24368;52.156;20.788;2023-05-07T18:18:35;3.60;;;2.70;;
38611;SDS011;24368;52.156;20.788;2023-05-07T18:23:36;3.30;;;2.90;;
38611;SDS011;24368;52.156;20.788;2023-05-07T18:28:38;3.50;;;2.70;;
38611;SDS011;24368;52.156;20.788;2023-05-07T18:33:40;3.10;;;2.80;;
38611;SDS011;24368;52.156;20.788;2023-05-07T18:38:41;6.40;;;4.70;;
38611;SDS011;24368;52.156;20.788;2023-05-07T18:43:42;4.90;;;4.40;;
38611;SDS011;24368;52.156;20.788;2023-05-07T18:48:44;5.10;;;4.70;;
38611;SDS011;24368;52.156;20.788;2023-05-07T18:53:45;5.80;;;5.30;;
38611;SDS011;24368;52.156;20.788;2023-05-07T18:58:46;7.00;;;4.80;;
38611;SDS011;24368;52.156;20.788;2023-05-07T19:03:49;5.10;;;4.60;;
38611;SDS011;24368;52.156;20.788;2023-05-07T19:08:50;4.70;;;4.10;;
38611;SDS011;24368;52.156;20.788;2023-05-07T19:13:51;4.50;;;3.60;;
38611;SDS011;24368;52.156;20.788;2023-05-07T19:18:53;8.50;;;4.20;;
38611;SDS011;24368;52.156;20.788;2023-05-07T19:23:54;5.70;;;4.20;;
38611;SDS011;24368;52.156;20.788;2023-05-07T19:28:57;5.40;;;3.90;;
38611;SDS011;24368;52.156;20.788;2023-05-07T19:33:58;4.70;;;4.20;;
38611;SDS011;24368;52.156;20.788;2023-05-07T19:39:00;5.10;;;4.10;;
38611;SDS011;24368;52.156;20.788;2023-05-07T19:44:01;4.20;;;3.80;;
38611;SDS011;24368;52.156;20.788;2023-05-07T19:49:02;5.40;;;3.70;;
38611;SDS011;24368;52.156;20.788;2023-05-07T19:54:03;5.30;;;4.80;;
38611;SDS011;24368;52.156;20.788;2023-05-07T19:59:05;7.00;;;4.40;;
38611;SDS011;24368;52.156;20.788;2023-05-07T20:04:07;6.00;;;4.40;;
38611;SDS011;24368;52.156;20.788;2023-05-07T20:09:08;5.70;;;4.50;;
38611;SDS011;24368;52.156;20.788;2023-05-07T20:14:12;7.00;;;5.60;;
38611;SDS011;24368;52.156;20.788;2023-05-07T20:19:13;8.30;;;6.70;;
38611;SDS011;24368;52.156;20.788;2023-05-07T20:24:14;8.60;;;7.50;;
38611;SDS011;24368;52.156;20.788;2023-05-07T20:29:18;9.50;;;7.10;;
38611;SDS011;24368;52.156;20.788;2023-05-07T20:34:20;11.20;;;7.80;;
38611;SDS011;24368;52.156;20.788;2023-05-07T20:39:21;8.60;;;7.70;;
38611;SDS011;24368;52.156;20.788;2023-05-07T20:44:24;9.30;;;7.60;;
38611;SDS011;24368;52.156;20.788;2023-05-07T20:49:25;9.00;;;8.00;;
38611;SDS011;24368;52.156;20.788;2023-05-07T20:54:26;9.60;;;7.90;;
38611;SDS011;24368;52.156;20.788;2023-05-07T20:59:28;9.10;;;8.10;;
38611;SDS011;24368;52.156;20.788;2023-05-07T21:04:29;11.60;;;8.30;;
38611;SDS011;24368;52.156;20.788;2023-05-07T21:09:31;11.00;;;8.10;;
38611;SDS011;24368;52.156;20.788;2023-05-07T21:14:32;9.80;;;7.80;;
38611;SDS011;24368;52.156;20.788;2023-05-07T21:19:34;7.80;;;7.00;;
38611;SDS011;24368;52.156;20.788;2023-05-07T21:24:35;9.50;;;7.00;;
38611;SDS011;24368;52.156;20.788;2023-05-07T21:29:37;10.10;;;7.10;;
38611;SDS011;24368;52.156;20.788;2023-05-07T21:34:38;10.00;;;8.30;;
38611;SDS011;24368;52.156;20.788;2023-05-07T21:39:39;10.20;;;8.10;;
38611;SDS011;24368;52.156;20.788;2023-05-07T21:44:41;10.50;;;8.40;;
38611;SDS011;24368;52.156;20.788;2023-05-07T21:49:42;10.70;;;8.70;;
38611;SDS011;24368;52.156;20.788;2023-05-07T21:54:43;10.00;;;8.50;;
38611;SDS011;24368;52.156;20.788;2023-05-07T21:59:44;10.10;;;7.90;;
38611;SDS011;24368;52.156;20.788;2023-05-07T22:04:45;10.30;;;9.30;;
38611;SDS011;24368;52.156;20.788;2023-05-07T22:09:47;10.60;;;9.50;;
38611;SDS011;24368;52.156;20.788;2023-05-07T22:14:48;11.50;;;10.30;;
38611;SDS011;24368;52.156;20.788;2023-05-07T22:19:49;12.10;;;10.10;;
38611;SDS011;24368;52.156;20.788;2023-05-07T22:24:51;13.20;;;10.50;;
38611;SDS011;24368;52.156;20.788;2023-05-07T22:29:54;11.20;;;10.10;;
38611;SDS011;24368;52.156;20.788;2023-05-07T22:34:55;12.90;;;11.00;;
38611;SDS011;24368;52.156;20.788;2023-05-07T22:39:56;12.50;;;11.20;;
38611;SDS011;24368;52.156;20.788;2023-05-07T22:44:57;12.80;;;10.70;;
38611;SDS011;24368;52.156;20.788;2023-05-07T22:49:58;14.00;;;11.30;;
38611;SDS011;24368;52.156;20.788;2023-05-07T22:55:00;14.00;;;12.50;;
38611;SDS011;24368;52.156;20.788;2023-05-07T23:00:02;13.20;;;11.50;;
38611;SDS011;24368;52.156;20.788;2023-05-07T23:05:04;13.40;;;12.00;;
38611;SDS011;24368;52.156;20.788;2023-05-07T23:10:05;13.30;;;11.00;;
38611;SDS011;24368;52.156;20.788;2023-05-07T23:15:07;11.70;;;10.50;;
38611;SDS011;24368;52.156;20.788;2023-05-07T23:20:09;13.10;;;10.60;;
38611;SDS011;24368;52.156;20.788;2023-05-07T23:25:10;11.30;;;10.10;;
38611;SDS011;24368;52.156;20.788;2023-05-07T23:30:12;13.70;;;10.50;;
38611;SDS011;24368;52.156;20.788;2023-05-07T23:35:13;11.70;;;10.40;;
38611;SDS011;24368;52.156;20.788;2023-05-07T23:40:15;11.30;;;9.80;;
38611;SDS011;24368;52.156;20.788;2023-05-07T23:45:17;11.60;;;9.20;;
38611;SDS011;24368;52.156;20.788;2023-05-07T23:50:18;10.00;;;9.00;;
38611;SDS011;24368;52.156;20.788;2023-05-07T23:55:19;11.60;;;9.80;;
